sensor_id;sensor_type;location;lat;lon;timestamp;pressure;altitude;pressure_sealevel;temperature;humidity
64876;BME280;51369;49.862;9.908;2023-12-29T00:01:31;98255.34;;;10.65;79.93
64876;BME280;51369;49.862;9.908;2023-12-29T00:03:56;98244.59;;;10.63;80.60
64876;BME280;51369;49.862;9.908;2023-12-29T00:06:22;98237.47;;;10.62;79.63
64876;BME280;51369;49.862;9.908;2023-12-29T00:08:47;98233.88;;;10.62;80.32
64876;BME280;51369;49.862;9.908;2023-12-29T00:11:19;98233.00;;;10.61;79.84
64876;BME280;51369;49.862;9.908;2023-12-29T00:13:45;98230.22;;;10.63;80.22
64876;BME280;51369;49.862;9.908;2023-12-29T00:16:10;98227.66;;;10.60;79.51
64876;BME280;51369;49.862;9.908;2023-12-29T00:18:39;98228.63;;;10.59;79.70
64876;BME280;51369;49.862;9.908;2023-12-29T00:21:05;98229.50;;;10.59;80.09
64876;BME280;51369;49.862;9.908;2023-12-29T00:23:30;98225.91;;;10.59;80.18
64876;BME280;51369;49.862;9.908;2023-12-29T00:25:56;98218.63;;;10.61;79.90
64876;BME280;51369;49.862;9.908;2023-12-29T00:28:22;98219.50;;;10.61;80.22
64876;BME280;51369;49.862;9.908;2023-12-29T00:30:47;98220.38;;;10.62;80.28
64876;BME280;51369;49.862;9.908;2023-12-29T00:33:13;98223.88;;;10.64;79.59
64876;BME280;51369;49.862;9.908;2023-12-29T00:35:38;98216.72;;;10.63;79.53
64876;BME280;51369;49.862;9.908;2023-12-29T00:38:06;98218.50;;;10.64;79.90
64876;BME280;51369;49.862;9.908;2023-12-29T00:40:33;98204.03;;;10.65;79.55
64876;BME280;51369;49.862;9.908;2023-12-29T00:43:02;98201.34;;;10.65;79.44
64876;BME280;51369;49.862;9.908;2023-12-29T00:45:28;98208.44;;;10.67;80.49
64876;BME280;51369;49.862;9.908;2023-12-29T00:47:58;98206.59;;;10.68;80.26
64876;BME280;51369;49.862;9.908;2023-12-29T00:50:24;98183.19;;;10.68;79.59
64876;BME280;51369;49.862;9.908;2023-12-29T00:52:49;98189.44;;;10.69;79.43
64876;BME280;51369;49.862;9.908;2023-12-29T00:55:15;98189.44;;;10.69;79.47
64876;BME280;51369;49.862;9.908;2023-12-29T00:57:41;98179.53;;;10.69;80.00
64876;BME280;51369;49.862;9.908;2023-12-29T01:00:07;98192.22;;;10.67;80.19
64876;BME280;51369;49.862;9.908;2023-12-29T01:02:33;98193.03;;;10.69;80.03
64876;BME280;51369;49.862;9.908;2023-12-29T01:04:59;98187.63;;;10.69;80.21
64876;BME280;51369;49.862;9.908;2023-12-29T01:07:24;98185.88;;;10.68;79.79
64876;BME280;51369;49.862;9.908;2023-12-29T01:09:49;98192.09;;;10.70;79.81
64876;BME280;51369;49.862;9.908;2023-12-29T01:12:15;98188.50;;;10.70;79.69
64876;BME280;51369;49.862;9.908;2023-12-29T01:14:40;98193.03;;;10.69;78.88
64876;BME280;51369;49.862;9.908;2023-12-29T01:17:05;98185.00;;;10.68;78.79
64876;BME280;51369;49.862;9.908;2023-12-29T01:19:31;98177.84;;;10.67;79.62
64876;BME280;51369;49.862;9.908;2023-12-29T01:21:56;98186.03;;;10.65;79.27
64876;BME280;51369;49.862;9.908;2023-12-29T01:24:21;98187.78;;;10.66;79.31
64876;BME280;51369;49.862;9.908;2023-12-29T01:26:47;98190.53;;;10.65;78.68
64876;BME280;51369;49.862;9.908;2023-12-29T01:29:12;98203.16;;;10.64;79.32
64876;BME280;51369;49.862;9.908;2023-12-29T01:31:37;98201.41;;;10.63;79.48
64876;BME280;51369;49.862;9.908;2023-12-29T01:34:03;98201.41;;;10.63;79.74
64876;BME280;51369;49.862;9.908;2023-12-29T01:36:28;98196.09;;;10.62;79.71
64876;BME280;51369;49.862;9.908;2023-12-29T01:38:54;98186.31;;;10.59;79.88
64876;BME280;51369;49.862;9.908;2023-12-29T01:41:20;98179.16;;;10.58;79.25
64876;BME280;51369;49.862;9.908;2023-12-29T01:46:33;98180.38;;;10.51;78.85
64876;BME280;51369;49.862;9.908;2023-12-29T01:48:59;98185.03;;;10.48;79.63
64876;BME280;51369;49.862;9.908;2023-12-29T01:51:27;98187.88;;;10.44;79.12
64876;BME280;51369;49.862;9.908;2023-12-29T01:53:54;98183.56;;;10.40;79.55
64876;BME280;51369;49.862;9.908;2023-12-29T01:56:20;98171.03;;;10.39;79.87
64876;BME280;51369;49.862;9.908;2023-12-29T01:58:49;98182.91;;;10.35;79.94
64876;BME280;51369;49.862;9.908;2023-12-29T02:01:15;98177.53;;;10.35;79.34
64876;BME280;51369;49.862;9.908;2023-12-29T02:03:44;98173.94;;;10.35;79.75
64876;BME280;51369;49.862;9.908;2023-12-29T02:06:10;98178.41;;;10.36;79.09
64876;BME280;51369;49.862;9.908;2023-12-29T02:08:36;98180.16;;;10.37;79.83
64876;BME280;51369;49.862;9.908;2023-12-29T02:11:02;98161.19;;;10.38;79.58
64876;BME280;51369;49.862;9.908;2023-12-29T02:13:28;98166.59;;;10.38;78.93
64876;BME280;51369;49.862;9.908;2023-12-29T02:15:54;98152.16;;;10.39;79.60
64876;BME280;51369;49.862;9.908;2023-12-29T02:18:24;98158.31;;;10.41;79.37
64876;BME280;51369;49.862;9.908;2023-12-29T02:20:51;98159.19;;;10.42;78.68
64876;BME280;51369;49.862;9.908;2023-12-29T02:23:17;98155.56;;;10.43;78.56
64876;BME280;51369;49.862;9.908;2023-12-29T02:25:43;98161.81;;;10.43;78.39
64876;BME280;51369;49.862;9.908;2023-12-29T02:31:57;98136.66;;;10.43;78.71
64876;BME280;51369;49.862;9.908;2023-12-29T02:34:24;98142.94;;;10.43;78.04
64876;BME280;51369;49.862;9.908;2023-12-29T02:36:51;98134.97;;;10.40;78.39
64876;BME280;51369;49.862;9.908;2023-12-29T02:39:17;98151.16;;;10.40;78.74
64876;BME280;51369;49.862;9.908;2023-12-29T02:41:43;98161.03;;;10.41;79.27
64876;BME280;51369;49.862;9.908;2023-12-29T02:44:09;98145.78;;;10.40;78.86
64876;BME280;51369;49.862;9.908;2023-12-29T02:46:34;98140.31;;;10.42;79.60
64876;BME280;51369;49.862;9.908;2023-12-29T02:49:00;98146.50;;;10.44;79.54
64876;BME280;51369;49.862;9.908;2023-12-29T02:51:25;98132.22;;;10.42;79.30
64876;BME280;51369;49.862;9.908;2023-12-29T02:53:51;98125.88;;;10.43;79.28
64876;BME280;51369;49.862;9.908;2023-12-29T02:56:16;98128.63;;;10.41;79.50
64876;BME280;51369;49.862;9.908;2023-12-29T02:58:41;98126.03;;;10.40;79.15
64876;BME280;51369;49.862;9.908;2023-12-29T03:01:08;98131.50;;;10.38;78.70
64876;BME280;51369;49.862;9.908;2023-12-29T03:03:33;98128.88;;;10.37;79.13
64876;BME280;51369;49.862;9.908;2023-12-29T03:05:59;98135.28;;;10.34;78.50
64876;BME280;51369;49.862;9.908;2023-12-29T03:08:24;98123.69;;;10.32;79.11
64876;BME280;51369;49.862;9.908;2023-12-29T03:10:50;98130.91;;;10.32;79.40
64876;BME280;51369;49.862;9.908;2023-12-29T03:13:15;98126.59;;;10.28;79.66
64876;BME280;51369;49.862;9.908;2023-12-29T03:15:40;98130.31;;;10.25;79.00
64876;BME280;51369;49.862;9.908;2023-12-29T03:18:06;98130.44;;;10.22;79.32
64876;BME280;51369;49.862;9.908;2023-12-29T03:20:31;98136.91;;;10.18;79.83
64876;BME280;51369;49.862;9.908;2023-12-29T03:22:56;98130.75;;;10.15;79.68
64876;BME280;51369;49.862;9.908;2023-12-29T03:25:22;98130.84;;;10.13;79.77
64876;BME280;51369;49.862;9.908;2023-12-29T03:27:49;98134.59;;;10.09;79.71
64876;BME280;51369;49.862;9.908;2023-12-29T03:30:14;98127.53;;;10.06;78.97
64876;BME280;51369;49.862;9.908;2023-12-29T03:32:42;98135.69;;;10.05;80.11
64876;BME280;51369;49.862;9.908;2023-12-29T03:35:07;98134.06;;;10.01;79.05
64876;BME280;51369;49.862;9.908;2023-12-29T03:37:33;98131.50;;;9.98;79.99
64876;BME280;51369;49.862;9.908;2023-12-29T03:39:58;98131.59;;;9.96;79.68
64876;BME280;51369;49.862;9.908;2023-12-29T03:42:23;98126.19;;;9.96;79.66
64876;BME280;51369;49.862;9.908;2023-12-29T03:44:49;98127.94;;;9.97;79.66
64876;BME280;51369;49.862;9.908;2023-12-29T03:47:14;98127.94;;;9.97;79.34
64876;BME280;51369;49.862;9.908;2023-12-29T03:49:40;98133.25;;;9.99;80.41
64876;BME280;51369;49.862;9.908;2023-12-29T03:52:05;98135.03;;;10.00;79.86
64876;BME280;51369;49.862;9.908;2023-12-29T03:54:30;98135.03;;;10.00;79.54
64876;BME280;51369;49.862;9.908;2023-12-29T03:56:56;98135.97;;;9.99;79.77
64876;BME280;51369;49.862;9.908;2023-12-29T03:59:21;98126.94;;;10.00;79.89
64876;BME280;51369;49.862;9.908;2023-12-29T04:01:46;98127.88;;;9.99;79.55
64876;BME280;51369;49.862;9.908;2023-12-29T04:04:12;98125.19;;;9.99;79.30
64876;BME280;51369;49.862;9.908;2023-12-29T04:06:37;98118.91;;;9.98;79.38
64876;BME280;51369;49.862;9.908;2023-12-29T04:09:03;98131.50;;;9.98;79.24
64876;BME280;51369;49.862;9.908;2023-12-29T04:11:28;98127.00;;;9.98;78.97
64876;BME280;51369;49.862;9.908;2023-12-29T04:13:54;98125.97;;;10.01;78.79
64876;BME280;51369;49.862;9.908;2023-12-29T04:16:19;98115.13;;;10.02;78.46
64876;BME280;51369;49.862;9.908;2023-12-29T04:18:44;98116.81;;;10.05;78.70
64876;BME280;51369;49.862;9.908;2023-12-29T04:21:14;98123.00;;;10.07;78.73
64876;BME280;51369;49.862;9.908;2023-12-29T04:23:39;98113.03;;;10.09;78.95
64876;BME280;51369;49.862;9.908;2023-12-29T04:26:07;98113.03;;;10.09;78.22
64876;BME280;51369;49.862;9.908;2023-12-29T04:28:32;98107.78;;;10.06;77.72
64876;BME280;51369;49.862;9.908;2023-12-29T04:30:58;98114.19;;;10.03;77.88
64876;BME280;51369;49.862;9.908;2023-12-29T04:33:24;98117.16;;;9.97;77.46
64876;BME280;51369;49.862;9.908;2023-12-29T04:35:49;98111.97;;;9.93;77.28
64876;BME280;51369;49.862;9.908;2023-12-29T04:38:15;98104.88;;;9.90;77.48
64876;BME280;51369;49.862;9.908;2023-12-29T04:40:42;98099.69;;;9.86;77.52
64876;BME280;51369;49.862;9.908;2023-12-29T04:43:08;98096.19;;;9.84;76.87
64876;BME280;51369;49.862;9.908;2023-12-29T04:45:33;98089.19;;;9.79;76.80
64876;BME280;51369;49.862;9.908;2023-12-29T04:47:58;98094.69;;;9.76;76.39
64876;BME280;51369;49.862;9.908;2023-12-29T04:50:24;98102.84;;;9.75;77.19
64876;BME280;51369;49.862;9.908;2023-12-29T04:52:49;98099.41;;;9.71;76.87
64876;BME280;51369;49.862;9.908;2023-12-29T04:55:15;98094.16;;;9.68;77.12
64876;BME280;51369;49.862;9.908;2023-12-29T04:57:40;98103.25;;;9.66;76.81
64876;BME280;51369;49.862;9.908;2023-12-29T05:00:06;98098.81;;;9.65;77.05
64876;BME280;51369;49.862;9.908;2023-12-29T05:02:31;98083.72;;;9.61;76.39
64876;BME280;51369;49.862;9.908;2023-12-29T05:04:56;98082.03;;;9.58;75.99
64876;BME280;51369;49.862;9.908;2023-12-29T05:07:23;98083.91;;;9.56;76.34
64876;BME280;51369;49.862;9.908;2023-12-29T05:09:49;98083.97;;;9.55;76.59
64876;BME280;51369;49.862;9.908;2023-12-29T05:12:14;98078.72;;;9.52;75.73
64876;BME280;51369;49.862;9.908;2023-12-29T05:14:39;98078.91;;;9.47;76.41
64876;BME280;51369;49.862;9.908;2023-12-29T05:17:05;98078.19;;;9.43;76.15
64876;BME280;51369;49.862;9.908;2023-12-29T05:19:30;98077.44;;;9.40;76.83
64876;BME280;51369;49.862;9.908;2023-12-29T05:21:56;98086.53;;;9.37;76.46
64876;BME280;51369;49.862;9.908;2023-12-29T05:24:21;98089.22;;;9.37;77.09
64876;BME280;51369;49.862;9.908;2023-12-29T05:26:46;98083.88;;;9.36;76.28
64876;BME280;51369;49.862;9.908;2023-12-29T05:29:12;98083.09;;;9.34;76.10
64876;BME280;51369;49.862;9.908;2023-12-29T05:31:37;98080.50;;;9.31;76.27
64876;BME280;51369;49.862;9.908;2023-12-29T05:34:03;98079.78;;;9.27;76.56
64876;BME280;51369;49.862;9.908;2023-12-29T05:36:28;98078.06;;;9.25;76.74
64876;BME280;51369;49.862;9.908;2023-12-29T05:38:55;98086.16;;;9.25;76.75
64876;BME280;51369;49.862;9.908;2023-12-29T05:41:21;98090.66;;;9.24;76.88
64876;BME280;51369;49.862;9.908;2023-12-29T05:43:47;98095.19;;;9.24;76.43
64876;BME280;51369;49.862;9.908;2023-12-29T05:46:12;98095.25;;;9.22;76.33
64876;BME280;51369;49.862;9.908;2023-12-29T05:48:39;98108.78;;;9.21;76.17
64876;BME280;51369;49.862;9.908;2023-12-29T05:51:11;98106.22;;;9.18;76.54
64876;BME280;51369;49.862;9.908;2023-12-29T05:53:39;98102.63;;;9.17;76.64
64876;BME280;51369;49.862;9.908;2023-12-29T05:56:04;98101.81;;;9.15;75.68
64876;BME280;51369;49.862;9.908;2023-12-29T05:58:30;98094.75;;;9.12;76.02
64876;BME280;51369;49.862;9.908;2023-12-29T06:00:55;98090.31;;;9.11;75.86
64876;BME280;51369;49.862;9.908;2023-12-29T06:03:21;98089.50;;;9.09;76.11
64876;BME280;51369;49.862;9.908;2023-12-29T06:05:48;98100.25;;;9.09;77.08
64876;BME280;51369;49.862;9.908;2023-12-29T06:08:13;98090.44;;;9.08;77.23
64876;BME280;51369;49.862;9.908;2023-12-29T06:10:39;98099.44;;;9.07;76.83
64876;BME280;51369;49.862;9.908;2023-12-29T06:13:04;98095.88;;;9.07;77.20
64876;BME280;51369;49.862;9.908;2023-12-29T06:15:30;98090.56;;;9.05;77.63
64876;BME280;51369;49.862;9.908;2023-12-29T06:17:55;98088.81;;;9.04;76.92
64876;BME280;51369;49.862;9.908;2023-12-29T06:20:20;98087.00;;;9.05;77.05
64876;BME280;51369;49.862;9.908;2023-12-29T06:22:46;98096.00;;;9.04;77.08
64876;BME280;51369;49.862;9.908;2023-12-29T06:25:11;98105.84;;;9.05;76.92
64876;BME280;51369;49.862;9.908;2023-12-29T06:27:38;98112.91;;;9.07;77.31
64876;BME280;51369;49.862;9.908;2023-12-29T06:30:10;98102.97;;;9.09;77.92
64876;BME280;51369;49.862;9.908;2023-12-29T06:32:36;98112.66;;;9.13;77.76
64876;BME280;51369;49.862;9.908;2023-12-29T06:35:01;98115.16;;;9.18;77.03
64876;BME280;51369;49.862;9.908;2023-12-29T06:37:28;98114.03;;;9.24;77.63
64876;BME280;51369;49.862;9.908;2023-12-29T06:39:53;98108.41;;;9.30;77.29
64876;BME280;51369;49.862;9.908;2023-12-29T06:42:19;98105.56;;;9.33;76.68
64876;BME280;51369;49.862;9.908;2023-12-29T06:44:45;98093.84;;;9.34;77.17
64876;BME280;51369;49.862;9.908;2023-12-29T06:47:11;98099.31;;;9.32;76.96
64876;BME280;51369;49.862;9.908;2023-12-29T06:49:36;98096.75;;;9.29;76.25
64876;BME280;51369;49.862;9.908;2023-12-29T06:52:02;98108.59;;;9.25;76.94
64876;BME280;51369;49.862;9.908;2023-12-29T06:54:27;98105.16;;;9.22;76.48
64876;BME280;51369;49.862;9.908;2023-12-29T06:56:53;98102.56;;;9.19;75.81
64876;BME280;51369;49.862;9.908;2023-12-29T06:59:18;98109.84;;;9.17;76.50
64876;BME280;51369;49.862;9.908;2023-12-29T07:01:46;98114.41;;;9.14;76.32
64876;BME280;51369;49.862;9.908;2023-12-29T07:04:11;98112.66;;;9.13;76.80
64876;BME280;51369;49.862;9.908;2023-12-29T07:06:37;98118.06;;;9.13;76.82
64876;BME280;51369;49.862;9.908;2023-12-29T07:09:03;98119.00;;;9.12;76.85
64876;BME280;51369;49.862;9.908;2023-12-29T07:11:29;98127.13;;;9.11;76.71
64876;BME280;51369;49.862;9.908;2023-12-29T07:13:54;98124.50;;;9.09;77.21
64876;BME280;51369;49.862;9.908;2023-12-29T07:16:20;98129.94;;;9.08;76.29
64876;BME280;51369;49.862;9.908;2023-12-29T07:18:46;98123.63;;;9.09;77.04
64876;BME280;51369;49.862;9.908;2023-12-29T07:21:12;98125.56;;;9.05;76.67
64876;BME280;51369;49.862;9.908;2023-12-29T07:23:38;98127.38;;;9.05;76.99
64876;BME280;51369;49.862;9.908;2023-12-29T07:26:03;98118.44;;;9.04;77.53
64876;BME280;51369;49.862;9.908;2023-12-29T07:28:29;98121.06;;;9.06;77.42
64876;BME280;51369;49.862;9.908;2023-12-29T07:30:54;98120.00;;;9.10;77.88
64876;BME280;51369;49.862;9.908;2023-12-29T07:33:19;98124.25;;;9.16;77.69
64876;BME280;51369;49.862;9.908;2023-12-29T07:35:45;98121.38;;;9.20;77.32
64876;BME280;51369;49.862;9.908;2023-12-29T07:38:10;98126.50;;;9.26;77.40
64876;BME280;51369;49.862;9.908;2023-12-29T07:40:35;98138.84;;;9.32;77.03
64876;BME280;51369;49.862;9.908;2023-12-29T07:43:01;98138.66;;;9.36;77.63
64876;BME280;51369;49.862;9.908;2023-12-29T07:45:26;98145.53;;;9.43;77.49
64876;BME280;51369;49.862;9.908;2023-12-29T07:47:51;98142.66;;;9.48;77.80
64876;BME280;51369;49.862;9.908;2023-12-29T07:50:17;98143.34;;;9.53;77.08
64876;BME280;51369;49.862;9.908;2023-12-29T07:52:43;98144.03;;;9.58;77.75
64876;BME280;51369;49.862;9.908;2023-12-29T07:55:09;98141.13;;;9.63;77.83
64876;BME280;51369;49.862;9.908;2023-12-29T07:57:34;98145.38;;;9.68;76.82
64876;BME280;51369;49.862;9.908;2023-12-29T08:00:01;98146.06;;;9.73;76.92
64876;BME280;51369;49.862;9.908;2023-12-29T08:02:26;98131.50;;;9.77;76.87
64876;BME280;51369;49.862;9.908;2023-12-29T08:04:52;98139.31;;;9.84;77.29
64876;BME280;51369;49.862;9.908;2023-12-29T08:07:19;98140.94;;;9.88;75.97
64876;BME280;51369;49.862;9.908;2023-12-29T08:09:45;98140.75;;;9.92;76.48
64876;BME280;51369;49.862;9.908;2023-12-29T08:12:10;98141.50;;;9.96;76.05
64876;BME280;51369;49.862;9.908;2023-12-29T08:14:35;98144.94;;;9.99;76.83
64876;BME280;51369;49.862;9.908;2023-12-29T08:17:01;98142.03;;;10.04;75.95
64876;BME280;51369;49.862;9.908;2023-12-29T08:19:26;98148.16;;;10.07;76.53
64876;BME280;51369;49.862;9.908;2023-12-29T08:21:52;98152.53;;;10.10;76.39
64876;BME280;51369;49.862;9.908;2023-12-29T08:24:18;98155.09;;;10.13;75.71
64876;BME280;51369;49.862;9.908;2023-12-29T08:26:46;98152.28;;;10.16;76.53
64876;BME280;51369;49.862;9.908;2023-12-29T08:29:15;98162.91;;;10.21;76.35
64876;BME280;51369;49.862;9.908;2023-12-29T08:31:41;98156.50;;;10.23;75.34
64876;BME280;51369;49.862;9.908;2023-12-29T08:34:07;98155.47;;;10.26;75.67
64876;BME280;51369;49.862;9.908;2023-12-29T08:36:33;98156.13;;;10.31;75.85
64876;BME280;51369;49.862;9.908;2023-12-29T08:38:58;98167.69;;;10.34;75.55
64876;BME280;51369;49.862;9.908;2023-12-29T08:41:24;98161.25;;;10.37;76.19
64876;BME280;51369;49.862;9.908;2023-12-29T08:43:49;98164.66;;;10.40;75.53
64876;BME280;51369;49.862;9.908;2023-12-29T08:46:14;98168.09;;;10.44;75.76
64876;BME280;51369;49.862;9.908;2023-12-29T08:48:40;98159.78;;;10.49;75.46
64876;BME280;51369;49.862;9.908;2023-12-29T08:51:05;98168.69;;;10.51;76.16
64876;BME280;51369;49.862;9.908;2023-12-29T08:53:32;98151.50;;;10.53;75.88
64876;BME280;51369;49.862;9.908;2023-12-29T08:56:01;98155.88;;;10.56;75.22
64876;BME280;51369;49.862;9.908;2023-12-29T08:58:26;98158.44;;;10.59;75.41
64876;BME280;51369;49.862;9.908;2023-12-29T09:00:52;98160.03;;;10.63;74.84
64876;BME280;51369;49.862;9.908;2023-12-29T09:03:17;98164.41;;;10.65;75.07
64876;BME280;51369;49.862;9.908;2023-12-29T09:05:42;98160.78;;;10.66;74.76
64876;BME280;51369;49.862;9.908;2023-12-29T09:08:08;98160.69;;;10.68;75.34
64876;BME280;51369;49.862;9.908;2023-12-29T09:10:33;98165.22;;;10.67;75.00
64876;BME280;51369;49.862;9.908;2023-12-29T09:12:58;98164.28;;;10.68;74.28
64876;BME280;51369;49.862;9.908;2023-12-29T09:15:24;98170.47;;;10.70;74.74
64876;BME280;51369;49.862;9.908;2023-12-29T09:17:50;98160.56;;;10.71;74.28
64876;BME280;51369;49.862;9.908;2023-12-29T09:20:16;98171.22;;;10.74;74.27
64876;BME280;51369;49.862;9.908;2023-12-29T09:22:41;98164.94;;;10.73;74.36
64876;BME280;51369;49.862;9.908;2023-12-29T09:25:07;98159.41;;;10.76;74.08
64876;BME280;51369;49.862;9.908;2023-12-29T09:27:32;98169.19;;;10.79;73.69
64876;BME280;51369;49.862;9.908;2023-12-29T09:29:58;98173.56;;;10.82;73.68
64876;BME280;51369;49.862;9.908;2023-12-29T09:32:24;98168.16;;;10.82;73.43
64876;BME280;51369;49.862;9.908;2023-12-29T09:34:49;98164.44;;;10.84;74.36
64876;BME280;51369;49.862;9.908;2023-12-29T09:37:14;98166.13;;;10.87;74.48
64876;BME280;51369;49.862;9.908;2023-12-29T09:39:40;98164.22;;;10.89;73.89
64876;BME280;51369;49.862;9.908;2023-12-29T09:42:07;98161.38;;;10.92;73.53
64876;BME280;51369;49.862;9.908;2023-12-29T09:44:35;98161.16;;;10.96;74.10
64876;BME280;51369;49.862;9.908;2023-12-29T09:47:02;98159.19;;;11.00;72.99
64876;BME280;51369;49.862;9.908;2023-12-29T09:49:37;98153.56;;;11.04;73.15
64876;BME280;51369;49.862;9.908;2023-12-29T09:52:05;98152.31;;;11.12;72.70
64876;BME280;51369;49.862;9.908;2023-12-29T09:54:32;98160.13;;;11.18;72.74
64876;BME280;51369;49.862;9.908;2023-12-29T09:56:57;98158.88;;;11.25;72.57
64876;BME280;51369;49.862;9.908;2023-12-29T09:59:25;98168.50;;;11.30;72.64
64876;BME280;51369;49.862;9.908;2023-12-29T10:01:52;98162.88;;;11.35;72.30
64876;BME280;51369;49.862;9.908;2023-12-29T10:04:19;98161.78;;;11.39;72.64
64876;BME280;51369;49.862;9.908;2023-12-29T10:06:46;98149.88;;;11.43;72.47
64876;BME280;51369;49.862;9.908;2023-12-29T10:09:15;98148.75;;;11.47;72.12
64876;BME280;51369;49.862;9.908;2023-12-29T10:11:42;98156.72;;;11.50;71.83
64876;BME280;51369;49.862;9.908;2023-12-29T10:16:52;98143.75;;;11.57;71.34
64876;BME280;51369;49.862;9.908;2023-12-29T10:20:01;98134.63;;;11.59;70.67
64876;BME280;51369;49.862;9.908;2023-12-29T10:22:47;98136.13;;;11.65;71.29
64876;BME280;51369;49.862;9.908;2023-12-29T10:25:14;98125.09;;;11.69;70.91
64876;BME280;51369;49.862;9.908;2023-12-29T10:27:39;98134.00;;;11.71;70.81
64876;BME280;51369;49.862;9.908;2023-12-29T10:30:09;98134.78;;;11.73;71.53
64876;BME280;51369;49.862;9.908;2023-12-29T10:32:36;98129.09;;;11.80;71.91
64876;BME280;51369;49.862;9.908;2023-12-29T10:35:08;98121.78;;;11.82;71.39
64876;BME280;51369;49.862;9.908;2023-12-29T10:37:34;98118.84;;;11.86;71.31
64876;BME280;51369;49.862;9.908;2023-12-29T10:40:00;98118.59;;;11.91;71.47
64876;BME280;51369;49.862;9.908;2023-12-29T10:42:26;98115.66;;;11.95;71.36
64876;BME280;51369;49.862;9.908;2023-12-29T10:45:09;98105.56;;;11.99;71.25
64876;BME280;51369;49.862;9.908;2023-12-29T10:47:35;98110.47;;;12.08;71.14
64876;BME280;51369;49.862;9.908;2023-12-29T10:50:02;98104.63;;;12.16;71.15
64876;BME280;51369;49.862;9.908;2023-12-29T10:52:29;98084.31;;;12.24;70.81
64876;BME280;51369;49.862;9.908;2023-12-29T10:55:05;98088.28;;;12.34;70.73
64876;BME280;51369;49.862;9.908;2023-12-29T10:57:31;98082.19;;;12.47;71.67
64876;BME280;51369;49.862;9.908;2023-12-29T10:59:57;98080.63;;;12.58;71.09
64876;BME280;51369;49.862;9.908;2023-12-29T11:02:23;98070.78;;;12.73;70.69
64876;BME280;51369;49.862;9.908;2023-12-29T11:04:49;98073.59;;;12.87;70.86
64876;BME280;51369;49.862;9.908;2023-12-29T11:07:16;98072.88;;;12.99;70.50
64876;BME280;51369;49.862;9.908;2023-12-29T11:10:00;98093.25;;;13.07;70.17
64876;BME280;51369;49.862;9.908;2023-12-29T11:12:25;98081.47;;;13.08;69.38
64876;BME280;51369;49.862;9.908;2023-12-29T11:14:51;98077.88;;;13.07;69.27
64876;BME280;51369;49.862;9.908;2023-12-29T11:17:18;98077.25;;;13.02;70.29
64876;BME280;51369;49.862;9.908;2023-12-29T11:19:45;98083.91;;;12.96;69.57
64876;BME280;51369;49.862;9.908;2023-12-29T11:22:12;98075.16;;;12.91;69.61
64876;BME280;51369;49.862;9.908;2023-12-29T11:24:38;98085.31;;;12.88;69.44
64876;BME280;51369;49.862;9.908;2023-12-29T11:27:06;98086.53;;;12.82;69.71
64876;BME280;51369;49.862;9.908;2023-12-29T11:29:32;98078.56;;;12.79;70.45
64876;BME280;51369;49.862;9.908;2023-12-29T11:32:00;98077.06;;;12.74;69.71
64876;BME280;51369;49.862;9.908;2023-12-29T11:34:34;98092.63;;;12.70;70.63
64876;BME280;51369;49.862;9.908;2023-12-29T11:37:21;98065.88;;;12.64;71.96
64876;BME280;51369;49.862;9.908;2023-12-29T11:40:30;98073.38;;;12.59;72.19
64876;BME280;51369;49.862;9.908;2023-12-29T11:43:01;98074.19;;;12.61;71.36
64876;BME280;51369;49.862;9.908;2023-12-29T11:45:31;98074.19;;;12.61;72.14
64876;BME280;51369;49.862;9.908;2023-12-29T11:47:59;98066.84;;;12.63;72.19
64876;BME280;51369;49.862;9.908;2023-12-29T11:50:35;98072.09;;;12.66;71.39
64876;BME280;51369;49.862;9.908;2023-12-29T11:53:08;98077.16;;;12.72;70.65
64876;BME280;51369;49.862;9.908;2023-12-29T11:55:38;98067.03;;;12.76;71.12
64876;BME280;51369;49.862;9.908;2023-12-29T11:58:04;98070.53;;;12.78;70.43
64876;BME280;51369;49.862;9.908;2023-12-29T12:00:48;98066.78;;;12.80;71.44
64876;BME280;51369;49.862;9.908;2023-12-29T12:03:25;98072.34;;;12.77;71.81
64876;BME280;51369;49.862;9.908;2023-12-29T12:05:51;98069.66;;;12.77;73.35
64876;BME280;51369;49.862;9.908;2023-12-29T12:08:28;98067.28;;;12.71;71.53
64876;BME280;51369;49.862;9.908;2023-12-29T12:10:55;98063.78;;;12.69;71.32
64876;BME280;51369;49.862;9.908;2023-12-29T12:13:46;98055.91;;;12.64;70.22
64876;BME280;51369;49.862;9.908;2023-12-29T12:16:47;98052.59;;;12.59;70.63
64876;BME280;51369;49.862;9.908;2023-12-29T12:19:13;98050.75;;;12.60;70.54
64876;BME280;51369;49.862;9.908;2023-12-29T12:21:40;98076.97;;;12.59;70.96
64876;BME280;51369;49.862;9.908;2023-12-29T12:24:05;98059.06;;;12.57;70.92
64876;BME280;51369;49.862;9.908;2023-12-29T12:26:33;98045.69;;;12.54;70.64
64876;BME280;51369;49.862;9.908;2023-12-29T12:28:58;98062.09;;;12.51;70.57
64876;BME280;51369;49.862;9.908;2023-12-29T12:31:24;98051.28;;;12.51;71.25
64876;BME280;51369;49.862;9.908;2023-12-29T12:33:55;98063.94;;;12.50;71.13
64876;BME280;51369;49.862;9.908;2023-12-29T12:36:24;98059.56;;;12.48;70.31
64876;BME280;51369;49.862;9.908;2023-12-29T12:38:56;98046.03;;;12.48;71.26
64876;BME280;51369;49.862;9.908;2023-12-29T12:41:23;98056.06;;;12.46;70.30
64876;BME280;51369;49.862;9.908;2023-12-29T12:46:22;98063.41;;;12.44;72.03
64876;BME280;51369;49.862;9.908;2023-12-29T12:48:50;98051.78;;;12.42;71.13
64876;BME280;51369;49.862;9.908;2023-12-29T12:51:16;98046.47;;;12.40;70.21
64876;BME280;51369;49.862;9.908;2023-12-29T12:53:44;98040.16;;;12.39;70.24
64876;BME280;51369;49.862;9.908;2023-12-29T12:56:10;98043.84;;;12.38;69.12
64876;BME280;51369;49.862;9.908;2023-12-29T12:58:36;98043.84;;;12.38;69.92
64876;BME280;51369;49.862;9.908;2023-12-29T13:01:02;98039.22;;;12.41;69.70
64876;BME280;51369;49.862;9.908;2023-12-29T13:03:29;98048.13;;;12.43;70.59
64876;BME280;51369;49.862;9.908;2023-12-29T13:05:56;98047.06;;;12.45;70.21
64876;BME280;51369;49.862;9.908;2023-12-29T13:08:23;98044.09;;;12.50;69.59
64876;BME280;51369;49.862;9.908;2023-12-29T13:10:50;98045.69;;;12.54;69.59
64876;BME280;51369;49.862;9.908;2023-12-29T13:13:16;98040.09;;;12.57;69.00